sensor_id;sensor_type;location;lat;lon;timestamp;P1;durP1;ratioP1;P2;durP2;ratioP2
3149;SDS011;32503;47.748;8.960;2022-08-02T00:01:05;3.10;;;3.00;;
3149;SDS011;32503;47.748;8.960;2022-08-02T00:03:32;2.60;;;2.50;;
3149;SDS011;32503;47.748;8.960;2022-08-02T00:06:00;3.27;;;3.07;;
3149;SDS011;32503;47.748;8.960;2022-08-02T00:08:27;3.20;;;3.00;;
3149;SDS011;32503;47.748;8.960;2022-08-02T00:10:54;2.77;;;2.67;;
3149;SDS011;32503;47.748;8.960;2022-08-02T00:13:21;3.53;;;2.93;;
3149;SDS011;32503;47.748;8.960;2022-08-02T00:15:48;2.77;;;2.67;;
3149;SDS011;32503;47.748;8.960;2022-08-02T00:18:16;2.93;;;2.73;;
3149;SDS011;32503;47.748;8.960;2022-08-02T00:20:44;2.93;;;2.83;;
3149;SDS011;32503;47.748;8.960;2022-08-02T00:23:11;2.63;;;2.43;;
3149;SDS011;32503;47.748;8.960;2022-08-02T00:25:38;3.30;;;3.10;;
3149;SDS011;32503;47.748;8.960;2022-08-02T00:28:05;2.50;;;2.40;;
3149;SDS011;32503;47.748;8.960;2022-08-02T00:30:32;3.20;;;2.90;;
3149;SDS011;32503;47.748;8.960;2022-08-02T00:32:59;2.37;;;2.17;;
3149;SDS011;32503;47.748;8.960;2022-08-02T00:35:30;2.70;;;2.60;;
3149;SDS011;32503;47.748;8.960;2022-08-02T00:37:57;2.20;;;2.10;;
3149;SDS011;32503;47.748;8.960;2022-08-02T00:40:25;2.53;;;2.43;;
3149;SDS011;32503;47.748;8.960;2022-08-02T00:43:02;3.47;;;3.27;;
3149;SDS011;32503;47.748;8.960;2022-08-02T00:45:32;2.93;;;2.73;;
3149;SDS011;32503;47.748;8.960;2022-08-02T00:47:59;2.90;;;2.80;;
3149;SDS011;32503;47.748;8.960;2022-08-02T00:50:27;2.37;;;2.27;;
3149;SDS011;32503;47.748;8.960;2022-08-02T00:52:56;3.57;;;2.43;;
3149;SDS011;32503;47.748;8.960;2022-08-02T00:55:24;2.70;;;2.60;;
3149;SDS011;32503;47.748;8.960;2022-08-02T00:57:52;2.50;;;2.40;;
3149;SDS011;32503;47.748;8.960;2022-08-02T01:00:20;3.30;;;2.80;;
3149;SDS011;32503;47.748;8.960;2022-08-02T01:02:48;2.57;;;2.37;;
3149;SDS011;32503;47.748;8.960;2022-08-02T01:05:15;3.23;;;3.00;;
3149;SDS011;32503;47.748;8.960;2022-08-02T01:07:43;2.90;;;2.70;;
3149;SDS011;32503;47.748;8.960;2022-08-02T01:10:11;2.27;;;2.17;;
3149;SDS011;32503;47.748;8.960;2022-08-02T01:12:38;2.63;;;2.53;;
3149;SDS011;32503;47.748;8.960;2022-08-02T01:15:06;2.47;;;2.27;;
3149;SDS011;32503;47.748;8.960;2022-08-02T01:17:39;3.20;;;2.90;;
3149;SDS011;32503;47.748;8.960;2022-08-02T01:20:17;3.03;;;2.83;;
3149;SDS011;32503;47.748;8.960;2022-08-02T01:23:20;2.50;;;2.40;;
3149;SDS011;32503;47.748;8.960;2022-08-02T01:26:17;2.70;;;2.60;;
3149;SDS011;32503;47.748;8.960;2022-08-02T01:29:05;3.90;;;3.70;;
3149;SDS011;32503;47.748;8.960;2022-08-02T01:31:39;2.67;;;2.57;;
3149;SDS011;32503;47.748;8.960;2022-08-02T01:34:15;2.23;;;2.13;;
3149;SDS011;32503;47.748;8.960;2022-08-02T01:36:48;2.23;;;2.13;;
3149;SDS011;32503;47.748;8.960;2022-08-02T01:39:24;2.87;;;2.67;;
3149;SDS011;32503;47.748;8.960;2022-08-02T01:41:55;2.60;;;2.50;;
3149;SDS011;32503;47.748;8.960;2022-08-02T01:44:25;2.90;;;2.60;;
3149;SDS011;32503;47.748;8.960;2022-08-02T01:46:57;3.40;;;2.83;;
3149;SDS011;32503;47.748;8.960;2022-08-02T01:49:28;2.97;;;2.77;;
3149;SDS011;32503;47.748;8.960;2022-08-02T01:51:57;2.50;;;2.40;;
3149;SDS011;32503;47.748;8.960;2022-08-02T01:54:44;2.80;;;2.70;;
3149;SDS011;32503;47.748;8.960;2022-08-02T01:57:14;2.50;;;2.40;;
3149;SDS011;32503;47.748;8.960;2022-08-02T01:59:44;3.83;;;3.47;;
3149;SDS011;32503;47.748;8.960;2022-08-02T02:02:14;3.20;;;2.93;;
3149;SDS011;32503;47.748;8.960;2022-08-02T02:04:43;3.30;;;3.10;;
3149;SDS011;32503;47.748;8.960;2022-08-02T02:07:11;2.97;;;2.87;;
3149;SDS011;32503;47.748;8.960;2022-08-02T02:09:41;2.97;;;2.87;;
3149;SDS011;32503;47.748;8.960;2022-08-02T02:12:10;3.43;;;3.13;;
3149;SDS011;32503;47.748;8.960;2022-08-02T02:14:40;2.53;;;2.43;;
3149;SDS011;32503;47.748;8.960;2022-08-02T02:17:10;2.90;;;2.80;;
3149;SDS011;32503;47.748;8.960;2022-08-02T02:19:39;2.70;;;2.60;;
3149;SDS011;32503;47.748;8.960;2022-08-02T02:22:07;3.10;;;3.00;;
3149;SDS011;32503;47.748;8.960;2022-08-02T02:24:34;2.80;;;2.70;;
3149;SDS011;32503;47.748;8.960;2022-08-02T02:27:01;3.00;;;2.90;;
3149;SDS011;32503;47.748;8.960;2022-08-02T02:29:32;2.93;;;2.83;;
3149;SDS011;32503;47.748;8.960;2022-08-02T02:32:00;2.87;;;2.67;;
3149;SDS011;32503;47.748;8.960;2022-08-02T02:34:32;3.37;;;3.27;;
3149;SDS011;32503;47.748;8.960;2022-08-02T02:37:05;3.57;;;3.27;;
3149;SDS011;32503;47.748;8.960;2022-08-02T02:39:38;3.00;;;2.90;;
3149;SDS011;32503;47.748;8.960;2022-08-02T02:42:08;3.17;;;3.00;;
3149;SDS011;32503;47.748;8.960;2022-08-02T02:44:39;2.97;;;2.87;;
3149;SDS011;32503;47.748;8.960;2022-08-02T02:47:07;3.03;;;2.83;;
3149;SDS011;32503;47.748;8.960;2022-08-02T02:49:37;3.30;;;3.10;;
3149;SDS011;32503;47.748;8.960;2022-08-02T02:52:08;3.27;;;2.97;;
3149;SDS011;32503;47.748;8.960;2022-08-02T02:54:38;3.47;;;3.27;;
3149;SDS011;32503;47.748;8.960;2022-08-02T02:57:07;3.00;;;2.90;;
3149;SDS011;32503;47.748;8.960;2022-08-02T02:59:34;2.90;;;2.80;;
3149;SDS011;32503;47.748;8.960;2022-08-02T03:02:04;3.10;;;3.00;;
3149;SDS011;32503;47.748;8.960;2022-08-02T03:04:32;2.87;;;2.77;;
3149;SDS011;32503;47.748;8.960;2022-08-02T03:07:02;3.13;;;3.03;;
3149;SDS011;32503;47.748;8.960;2022-08-02T03:09:29;4.30;;;3.27;;
3149;SDS011;32503;47.748;8.960;2022-08-02T03:11:56;3.07;;;2.87;;
3149;SDS011;32503;47.748;8.960;2022-08-02T03:14:24;2.80;;;2.60;;
3149;SDS011;32503;47.748;8.960;2022-08-02T03:16:52;3.33;;;3.23;;
3149;SDS011;32503;47.748;8.960;2022-08-02T03:19:21;2.70;;;2.50;;
3149;SDS011;32503;47.748;8.960;2022-08-02T03:21:49;2.60;;;2.50;;
3149;SDS011;32503;47.748;8.960;2022-08-02T03:24:18;3.07;;;2.80;;
3149;SDS011;32503;47.748;8.960;2022-08-02T03:26:45;3.60;;;3.40;;
3149;SDS011;32503;47.748;8.960;2022-08-02T03:29:12;2.70;;;2.60;;
3149;SDS011;32503;47.748;8.960;2022-08-02T03:31:40;3.47;;;3.27;;
3149;SDS011;32503;47.748;8.960;2022-08-02T03:34:11;3.07;;;2.90;;
3149;SDS011;32503;47.748;8.960;2022-08-02T03:36:38;2.97;;;2.87;;
3149;SDS011;32503;47.748;8.960;2022-08-02T03:39:07;3.27;;;3.07;;
3149;SDS011;32503;47.748;8.960;2022-08-02T03:41:37;3.03;;;2.83;;
3149;SDS011;32503;47.748;8.960;2022-08-02T03:44:05;3.40;;;3.20;;
3149;SDS011;32503;47.748;8.960;2022-08-02T03:46:32;3.43;;;3.23;;
3149;SDS011;32503;47.748;8.960;2022-08-02T03:49:03;2.90;;;2.80;;
3149;SDS011;32503;47.748;8.960;2022-08-02T03:51:32;2.70;;;2.60;;
3149;SDS011;32503;47.748;8.960;2022-08-02T03:54:00;3.90;;;3.70;;
3149;SDS011;32503;47.748;8.960;2022-08-02T03:56:28;3.07;;;2.97;;
3149;SDS011;32503;47.748;8.960;2022-08-02T03:59:09;3.00;;;2.80;;
3149;SDS011;32503;47.748;8.960;2022-08-02T04:01:38;2.80;;;2.70;;
3149;SDS011;32503;47.748;8.960;2022-08-02T04:04:05;3.00;;;2.90;;
3149;SDS011;32503;47.748;8.960;2022-08-02T04:06:33;3.07;;;2.87;;
3149;SDS011;32503;47.748;8.960;2022-08-02T04:09:00;3.03;;;2.83;;
3149;SDS011;32503;47.748;8.960;2022-08-02T04:11:27;3.20;;;3.10;;
3149;SDS011;32503;47.748;8.960;2022-08-02T04:13:58;3.60;;;3.30;;
3149;SDS011;32503;47.748;8.960;2022-08-02T04:16:33;3.80;;;3.60;;
3149;SDS011;32503;47.748;8.960;2022-08-02T04:19:08;3.70;;;3.50;;
3149;SDS011;32503;47.748;8.960;2022-08-02T04:21:40;3.30;;;3.10;;
3149;SDS011;32503;47.748;8.960;2022-08-02T04:24:11;3.13;;;3.03;;
3149;SDS011;32503;47.748;8.960;2022-08-02T04:26:40;3.13;;;3.03;;
3149;SDS011;32503;47.748;8.960;2022-08-02T04:29:08;3.57;;;3.30;;
3149;SDS011;32503;47.748;8.960;2022-08-02T04:31:39;3.50;;;3.30;;
3149;SDS011;32503;47.748;8.960;2022-08-02T04:34:08;3.67;;;3.47;;
3149;SDS011;32503;47.748;8.960;2022-08-02T04:36:35;3.10;;;3.00;;
3149;SDS011;32503;47.748;8.960;2022-08-02T04:39:03;3.50;;;3.30;;
3149;SDS011;32503;47.748;8.960;2022-08-02T04:41:37;3.80;;;3.60;;
3149;SDS011;32503;47.748;8.960;2022-08-02T04:44:05;3.80;;;3.60;;
3149;SDS011;32503;47.748;8.960;2022-08-02T04:46:33;2.90;;;2.80;;
3149;SDS011;32503;47.748;8.960;2022-08-02T04:49:02;3.40;;;3.20;;
3149;SDS011;32503;47.748;8.960;2022-08-02T04:51:32;6.50;;;3.53;;
3149;SDS011;32503;47.748;8.960;2022-08-02T04:54:00;3.20;;;3.10;;
3149;SDS011;32503;47.748;8.960;2022-08-02T04:56:27;3.17;;;2.97;;
3149;SDS011;32503;47.748;8.960;2022-08-02T04:58:55;3.40;;;3.20;;
3149;SDS011;32503;47.748;8.960;2022-08-02T05:01:22;3.87;;;2.80;;
3149;SDS011;32503;47.748;8.960;2022-08-02T05:03:49;3.80;;;3.60;;
3149;SDS011;32503;47.748;8.960;2022-08-02T05:06:17;4.00;;;3.63;;
3149;SDS011;32503;47.748;8.960;2022-08-02T05:08:45;3.57;;;3.37;;
3149;SDS011;32503;47.748;8.960;2022-08-02T05:11:13;3.00;;;2.90;;
3149;SDS011;32503;47.748;8.960;2022-08-02T05:13:40;5.83;;;3.37;;
3149;SDS011;32503;47.748;8.960;2022-08-02T05:16:10;4.57;;;3.17;;
3149;SDS011;32503;47.748;8.960;2022-08-02T05:18:40;3.23;;;3.13;;
3149;SDS011;32503;47.748;8.960;2022-08-02T05:21:07;3.33;;;3.23;;
3149;SDS011;32503;47.748;8.960;2022-08-02T05:23:36;2.90;;;2.60;;
3149;SDS011;32503;47.748;8.960;2022-08-02T05:26:03;3.10;;;2.90;;
3149;SDS011;32503;47.748;8.960;2022-08-02T05:28:30;2.57;;;2.47;;
3149;SDS011;32503;47.748;8.960;2022-08-02T05:30:57;3.40;;;3.20;;
3149;SDS011;32503;47.748;8.960;2022-08-02T05:33:35;3.50;;;3.30;;
3149;SDS011;32503;47.748;8.960;2022-08-02T05:36:02;4.17;;;3.97;;
3149;SDS011;32503;47.748;8.960;2022-08-02T05:38:30;3.70;;;3.50;;
3149;SDS011;32503;47.748;8.960;2022-08-02T05:40:59;3.23;;;3.07;;
3149;SDS011;32503;47.748;8.960;2022-08-02T05:43:26;2.70;;;2.60;;
3149;SDS011;32503;47.748;8.960;2022-08-02T05:45:53;2.60;;;2.50;;
3149;SDS011;32503;47.748;8.960;2022-08-02T05:48:20;3.10;;;2.90;;
3149;SDS011;32503;47.748;8.960;2022-08-02T05:50:48;4.10;;;3.80;;
3149;SDS011;32503;47.748;8.960;2022-08-02T05:53:23;4.70;;;4.50;;
3149;SDS011;32503;47.748;8.960;2022-08-02T05:56:08;3.67;;;3.47;;
3149;SDS011;32503;47.748;8.960;2022-08-02T05:58:48;4.67;;;4.47;;
3149;SDS011;32503;47.748;8.960;2022-08-02T06:01:27;4.20;;;4.00;;
3149;SDS011;32503;47.748;8.960;2022-08-02T06:04:01;4.27;;;4.07;;
3149;SDS011;32503;47.748;8.960;2022-08-02T06:06:32;3.40;;;3.20;;
3149;SDS011;32503;47.748;8.960;2022-08-02T06:09:03;3.83;;;3.63;;
3149;SDS011;32503;47.748;8.960;2022-08-02T06:11:37;3.37;;;3.07;;
3149;SDS011;32503;47.748;8.960;2022-08-02T06:14:08;3.33;;;3.23;;
3149;SDS011;32503;47.748;8.960;2022-08-02T06:16:37;2.60;;;2.50;;
3149;SDS011;32503;47.748;8.960;2022-08-02T06:19:05;3.17;;;2.97;;
3149;SDS011;32503;47.748;8.960;2022-08-02T06:21:32;3.27;;;3.07;;
3149;SDS011;32503;47.748;8.960;2022-08-02T06:24:01;8.70;;;3.37;;
3149;SDS011;32503;47.748;8.960;2022-08-02T06:26:30;3.70;;;3.50;;
3149;SDS011;32503;47.748;8.960;2022-08-02T06:29:00;3.07;;;2.97;;
3149;SDS011;32503;47.748;8.960;2022-08-02T06:31:27;6.23;;;5.83;;
3149;SDS011;32503;47.748;8.960;2022-08-02T06:33:55;6.10;;;5.70;;
3149;SDS011;32503;47.748;8.960;2022-08-02T06:36:26;3.67;;;3.47;;
3149;SDS011;32503;47.748;8.960;2022-08-02T06:39:03;4.63;;;4.20;;
3149;SDS011;32503;47.748;8.960;2022-08-02T06:41:37;3.30;;;3.20;;
3149;SDS011;32503;47.748;8.960;2022-08-02T06:44:07;3.30;;;3.07;;
3149;SDS011;32503;47.748;8.960;2022-08-02T06:46:35;3.40;;;3.20;;
3149;SDS011;32503;47.748;8.960;2022-08-02T06:49:02;3.57;;;3.37;;
3149;SDS011;32503;47.748;8.960;2022-08-02T06:51:30;3.70;;;3.60;;
3149;SDS011;32503;47.748;8.960;2022-08-02T06:53:58;3.43;;;3.20;;
3149;SDS011;32503;47.748;8.960;2022-08-02T06:56:25;2.80;;;2.70;;
3149;SDS011;32503;47.748;8.960;2022-08-02T06:58:52;4.27;;;4.07;;
3149;SDS011;32503;47.748;8.960;2022-08-02T07:01:20;4.47;;;4.07;;
3149;SDS011;32503;47.748;8.960;2022-08-02T07:03:47;3.47;;;3.27;;
3149;SDS011;32503;47.748;8.960;2022-08-02T07:06:15;3.13;;;3.03;;
3149;SDS011;32503;47.748;8.960;2022-08-02T07:08:42;2.93;;;2.83;;
3149;SDS011;32503;47.748;8.960;2022-08-02T07:11:09;2.77;;;2.67;;
3149;SDS011;32503;47.748;8.960;2022-08-02T07:13:37;3.03;;;2.80;;
3149;SDS011;32503;47.748;8.960;2022-08-02T07:16:04;3.13;;;2.97;;
3149;SDS011;32503;47.748;8.960;2022-08-02T07:18:32;3.33;;;3.20;;
3149;SDS011;32503;47.748;8.960;2022-08-02T07:21:00;3.37;;;3.20;;
3149;SDS011;32503;47.748;8.960;2022-08-02T07:23:29;3.30;;;3.10;;
3149;SDS011;32503;47.748;8.960;2022-08-02T07:25:56;2.63;;;2.53;;
3149;SDS011;32503;47.748;8.960;2022-08-02T07:28:24;4.43;;;4.13;;
3149;SDS011;32503;47.748;8.960;2022-08-02T07:30:51;3.57;;;3.47;;
3149;SDS011;32503;47.748;8.960;2022-08-02T07:33:18;3.60;;;3.40;;
3149;SDS011;32503;47.748;8.960;2022-08-02T07:35:47;3.70;;;3.43;;
3149;SDS011;32503;47.748;8.960;2022-08-02T07:38:15;3.83;;;3.53;;
3149;SDS011;32503;47.748;8.960;2022-08-02T07:40:42;2.77;;;2.67;;
3149;SDS011;32503;47.748;8.960;2022-08-02T07:43:09;3.30;;;3.20;;
3149;SDS011;32503;47.748;8.960;2022-08-02T07:45:36;2.77;;;2.63;;
3149;SDS011;32503;47.748;8.960;2022-08-02T07:48:03;2.97;;;2.87;;
3149;SDS011;32503;47.748;8.960;2022-08-02T07:50:32;3.80;;;3.60;;
3149;SDS011;32503;47.748;8.960;2022-08-02T07:53:01;4.50;;;4.20;;
3149;SDS011;32503;47.748;8.960;2022-08-02T07:55:28;3.37;;;3.27;;
3149;SDS011;32503;47.748;8.960;2022-08-02T07:57:55;3.83;;;3.50;;
3149;SDS011;32503;47.748;8.960;2022-08-02T08:00:22;4.37;;;4.17;;
3149;SDS011;32503;47.748;8.960;2022-08-02T08:02:49;4.37;;;4.07;;
3149;SDS011;32503;47.748;8.960;2022-08-02T08:05:17;3.70;;;3.60;;
3149;SDS011;32503;47.748;8.960;2022-08-02T08:07:44;3.50;;;3.40;;
3149;SDS011;32503;47.748;8.960;2022-08-02T08:10:12;3.50;;;3.30;;
3149;SDS011;32503;47.748;8.960;2022-08-02T08:12:40;3.90;;;3.70;;
3149;SDS011;32503;47.748;8.960;2022-08-02T08:15:07;4.03;;;3.83;;
3149;SDS011;32503;47.748;8.960;2022-08-02T08:17:35;4.23;;;3.93;;
3149;SDS011;32503;47.748;8.960;2022-08-02T08:20:03;2.93;;;2.83;;
3149;SDS011;32503;47.748;8.960;2022-08-02T08:22:32;3.30;;;3.20;;
3149;SDS011;32503;47.748;8.960;2022-08-02T08:24:59;3.30;;;3.10;;
3149;SDS011;32503;47.748;8.960;2022-08-02T08:27:27;3.40;;;3.30;;
3149;SDS011;32503;47.748;8.960;2022-08-02T08:29:54;3.50;;;3.30;;
3149;SDS011;32503;47.748;8.960;2022-08-02T08:32:21;4.47;;;3.80;;
3149;SDS011;32503;47.748;8.960;2022-08-02T08:34:49;3.30;;;3.00;;
3149;SDS011;32503;47.748;8.960;2022-08-02T08:37:16;5.10;;;3.13;;
3149;SDS011;32503;47.748;8.960;2022-08-02T08:39:43;3.40;;;3.30;;
3149;SDS011;32503;47.748;8.960;2022-08-02T08:42:11;3.40;;;3.30;;
3149;SDS011;32503;47.748;8.960;2022-08-02T08:44:39;3.40;;;3.30;;
3149;SDS011;32503;47.748;8.960;2022-08-02T08:47:06;2.93;;;2.83;;
3149;SDS011;32503;47.748;8.960;2022-08-02T08:49:36;3.73;;;3.60;;
3149;SDS011;32503;47.748;8.960;2022-08-02T08:52:10;3.37;;;3.27;;
3149;SDS011;32503;47.748;8.960;2022-08-02T08:54:38;3.40;;;3.30;;
3149;SDS011;32503;47.748;8.960;2022-08-02T08:57:09;3.20;;;3.10;;
3149;SDS011;32503;47.748;8.960;2022-08-02T08:59:37;3.20;;;3.00;;
3149;SDS011;32503;47.748;8.960;2022-08-02T09:02:05;2.37;;;2.27;;
3149;SDS011;32503;47.748;8.960;2022-08-02T09:04:35;4.03;;;3.83;;
3149;SDS011;32503;47.748;8.960;2022-08-02T09:07:03;3.80;;;3.70;;
3149;SDS011;32503;47.748;8.960;2022-08-02T09:09:30;2.97;;;2.87;;
3149;SDS011;32503;47.748;8.960;2022-08-02T09:12:11;3.53;;;3.43;;
3149;SDS011;32503;47.748;8.960;2022-08-02T09:14:41;3.00;;;2.90;;
3149;SDS011;32503;47.748;8.960;2022-08-02T09:17:09;3.80;;;3.70;;
3149;SDS011;32503;47.748;8.960;2022-08-02T09:19:37;3.37;;;3.17;;
3149;SDS011;32503;47.748;8.960;2022-08-02T09:22:05;3.20;;;3.10;;
3149;SDS011;32503;47.748;8.960;2022-08-02T09:24:41;3.10;;;3.00;;
3149;SDS011;32503;47.748;8.960;2022-08-02T09:27:12;3.10;;;3.00;;
3149;SDS011;32503;47.748;8.960;2022-08-02T09:29:45;4.10;;;3.20;;
3149;SDS011;32503;47.748;8.960;2022-08-02T09:32:13;3.10;;;3.00;;
3149;SDS011;32503;47.748;8.960;2022-08-02T09:34:43;3.57;;;3.47;;
3149;SDS011;32503;47.748;8.960;2022-08-02T09:37:22;2.50;;;2.40;;
3149;SDS011;32503;47.748;8.960;2022-08-02T09:39:51;2.40;;;2.30;;
3149;SDS011;32503;47.748;8.960;2022-08-02T09:42:19;2.80;;;2.70;;
3149;SDS011;32503;47.748;8.960;2022-08-02T09:44:54;2.63;;;2.53;;
3149;SDS011;32503;47.748;8.960;2022-08-02T09:47:23;2.10;;;2.00;;
3149;SDS011;32503;47.748;8.960;2022-08-02T09:49:51;2.67;;;2.57;;
3149;SDS011;32503;47.748;8.960;2022-08-02T09:52:21;2.03;;;1.83;;
3149;SDS011;32503;47.748;8.960;2022-08-02T09:54:51;2.40;;;2.30;;
3149;SDS011;32503;47.748;8.960;2022-08-02T09:57:25;2.10;;;2.00;;
3149;SDS011;32503;47.748;8.960;2022-08-02T09:59:58;2.33;;;2.13;;
3149;SDS011;32503;47.748;8.960;2022-08-02T10:02:26;2.30;;;2.20;;
3149;SDS011;32503;47.748;8.960;2022-08-02T10:04:53;2.73;;;2.63;;
3149;SDS011;32503;47.748;8.960;2022-08-02T10:07:20;2.50;;;2.30;;
3149;SDS011;32503;47.748;8.960;2022-08-02T10:09:48;2.80;;;2.70;;
3149;SDS011;32503;47.748;8.960;2022-08-02T10:12:16;2.73;;;2.53;;
3149;SDS011;32503;47.748;8.960;2022-08-02T10:14:46;2.47;;;2.37;;
3149;SDS011;32503;47.748;8.960;2022-08-02T10:17:18;3.00;;;2.80;;
3149;SDS011;32503;47.748;8.960;2022-08-02T10:19:46;2.70;;;2.60;;
3149;SDS011;32503;47.748;8.960;2022-08-02T10:22:14;3.27;;;3.17;;
3149;SDS011;32503;47.748;8.960;2022-08-02T10:24:42;2.77;;;2.67;;
3149;SDS011;32503;47.748;8.960;2022-08-02T10:27:13;2.73;;;2.63;;
3149;SDS011;32503;47.748;8.960;2022-08-02T10:29:43;3.60;;;2.90;;
3149;SDS011;32503;47.748;8.960;2022-08-02T10:32:14;2.73;;;2.63;;
3149;SDS011;32503;47.748;8.960;2022-08-02T10:34:50;3.40;;;3.20;;
3149;SDS011;32503;47.748;8.960;2022-08-02T10:37:22;3.20;;;3.10;;
3149;SDS011;32503;47.748;8.960;2022-08-02T10:39:55;3.20;;;3.10;;
3149;SDS011;32503;47.748;8.960;2022-08-02T10:45:11;3.43;;;3.13;;
3149;SDS011;32503;47.748;8.960;2022-08-02T10:53:22;2.33;;;2.13;;
3149;SDS011;32503;47.748;8.960;2022-08-02T10:55:51;2.13;;;2.03;;
3149;SDS011;32503;47.748;8.960;2022-08-02T10:58:19;2.60;;;2.50;;
3149;SDS011;32503;47.748;8.960;2022-08-02T11:00:48;2.53;;;2.33;;
3149;SDS011;32503;47.748;8.960;2022-08-02T11:06:06;2.80;;;2.70;;
3149;SDS011;32503;47.748;8.960;2022-08-02T11:08:35;2.60;;;2.40;;
3149;SDS011;32503;47.748;8.960;2022-08-02T11:11:14;2.30;;;2.20;;
3149;SDS011;32503;47.748;8.960;2022-08-02T11:13:59;2.43;;;2.23;;
3149;SDS011;32503;47.748;8.960;2022-08-02T11:22:43;3.90;;;2.60;;
3149;SDS011;32503;47.748;8.960;2022-08-02T11:25:31;2.70;;;2.60;;
3149;SDS011;32503;47.748;8.960;2022-08-02T11:27:59;2.73;;;2.63;;
3149;SDS011;32503;47.748;8.960;2022-08-02T11:30:36;2.67;;;2.57;;
3149;SDS011;32503;47.748;8.960;2022-08-02T11:33:04;2.37;;;2.27;;
3149;SDS011;32503;47.748;8.960;2022-08-02T11:35:36;3.00;;;2.80;;
3149;SDS011;32503;47.748;8.960;2022-08-02T11:38:12;2.47;;;2.37;;
3149;SDS011;32503;47.748;8.960;2022-08-02T11:40:42;2.80;;;2.70;;
3149;SDS011;32503;47.748;8.960;2022-08-02T11:43:19;2.90;;;2.70;;
3149;SDS011;32503;47.748;8.960;2022-08-02T11:45:51;2.40;;;2.30;;
3149;SDS011;32503;47.748;8.960;2022-08-02T11:48:29;2.70;;;2.60;;
3149;SDS011;32503;47.748;8.960;2022-08-02T11:51:06;3.13;;;3.03;;
3149;SDS011;32503;47.748;8.960;2022-08-02T11:53:41;2.70;;;2.50;;
3149;SDS011;32503;47.748;8.960;2022-08-02T11:56:11;2.67;;;2.50;;
3149;SDS011;32503;47.748;8.960;2022-08-02T11:58:40;3.20;;;3.00;;
3149;SDS011;32503;47.748;8.960;2022-08-02T12:01:07;2.30;;;2.20;;
3149;SDS011;32503;47.748;8.960;2022-08-02T12:03:35;2.73;;;2.63;;
3149;SDS011;32503;47.748;8.960;2022-08-02T12:06:03;2.83;;;2.73;;
3149;SDS011;32503;47.748;8.960;2022-08-02T12:08:33;3.17;;;2.97;;
3149;SDS011;32503;47.748;8.960;2022-08-02T12:11:02;2.60;;;2.40;;
3149;SDS011;32503;47.748;8.960;2022-08-02T12:13:40;2.40;;;2.30;;
3149;SDS011;32503;47.748;8.960;2022-08-02T12:16:09;2.30;;;2.10;;
3149;SDS011;32503;47.748;8.960;2022-08-02T12:18:55;2.43;;;2.33;;
3149;SDS011;32503;47.748;8.960;2022-08-02T12:21:42;2.67;;;2.57;;
3149;SDS011;32503;47.748;8.960;2022-08-02T12:24:11;2.57;;;2.43;;
3149;SDS011;32503;47.748;8.960;2022-08-02T12:26:41;2.50;;;2.30;;
3149;SDS011;32503;47.748;8.960;2022-08-02T12:29:10;2.80;;;2.70;;
3149;SDS011;32503;47.748;8.960;2022-08-02T12:31:38;2.40;;;2.20;;
3149;SDS011;32503;47.748;8.960;2022-08-02T12:34:11;2.53;;;2.43;;
3149;SDS011;32503;47.748;8.960;2022-08-02T12:36:41;2.27;;;2.17;;
3149;SDS011;32503;47.748;8.960;2022-08-02T12:39:11;2.47;;;2.37;;
3149;SDS011;32503;47.748;8.960;2022-08-02T12:41:39;4.37;;;2.80;;
3149;SDS011;32503;47.748;8.960;2022-08-02T12:44:13;2.70;;;2.60;;
3149;SDS011;32503;47.748;8.960;2022-08-02T12:46:42;2.63;;;2.53;;
3149;SDS011;32503;47.748;8.960;2022-08-02T12:49:15;2.37;;;2.27;;
3149;SDS011;32503;47.748;8.960;2022-08-02T12:51:44;2.30;;;2.20;;
3149;SDS011;32503;47.748;8.960;2022-08-02T12:54:15;2.63;;;2.30;;
3149;SDS011;32503;47.748;8.960;2022-08-02T12:56:46;2.10;;;2.00;;
3149;SDS011;32503;47.748;8.960;2022-08-02T12:59:14;2.23;;;2.13;;
3149;SDS011;32503;47.748;8.960;2022-08-02T13:01:42;2.30;;;2.20;;
3149;SDS011;32503;47.748;8.960;2022-08-02T13:04:10;2.47;;;2.37;;
3149;SDS011;32503;47.748;8.960;2022-08-02T13:06:37;2.10;;;2.00;;
3149;SDS011;32503;47.748;8.960;2022-08-02T13:09:10;2.70;;;2.60;;
3149;SDS011;32503;47.748;8.960;2022-08-02T13:11:41;2.10;;;2.00;;
3149;SDS011;32503;47.748;8.960;2022-08-02T13:14:08;2.20;;;2.10;;
3149;SDS011;32503;47.748;8.960;2022-08-02T13:16:36;2.70;;;2.13;;
3149;SDS011;32503;47.748;8.960;2022-08-02T13:19:03;2.30;;;2.20;;
3149;SDS011;32503;47.748;8.960;2022-08-02T13:21:30;2.23;;;2.10;;
3149;SDS011;32503;47.748;8.960;2022-08-02T13:23:57;2.70;;;2.60;;
3149;SDS011;32503;47.748;8.960;2022-08-02T13:26:26;2.57;;;2.47;;
3149;SDS011;32503;47.748;8.960;2022-08-02T13:28:53;2.37;;;2.27;;
3149;SDS011;32503;47.748;8.960;2022-08-02T13:31:20;2.80;;;2.70;;
3149;SDS011;32503;47.748;8.960;2022-08-02T13:33:47;2.60;;;2.50;;
3149;SDS011;32503;47.748;8.960;2022-08-02T13:36:14;2.50;;;2.40;;
3149;SDS011;32503;47.748;8.960;2022-08-02T13:38:41;3.03;;;2.70;;
3149;SDS011;32503;47.748;8.960;2022-08-02T13:41:09;2.40;;;2.30;;
3149;SDS011;32503;47.748;8.960;2022-08-02T13:43:38;6.90;;;2.50;;
3149;SDS011;32503;47.748;8.960;2022-08-02T13:46:06;2.27;;;2.17;;
3149;SDS011;32503;47.748;8.960;2022-08-02T13:48:33;2.53;;;2.33;;
3149;SDS011;32503;47.748;8.960;2022-08-02T13:51:00;2.80;;;2.70;;
3149;SDS011;32503;47.748;8.960;2022-08-02T13:53:28;2.60;;;2.40;;
3149;SDS011;32503;47.748;8.960;2022-08-02T13:55:55;2.77;;;2.67;;
3149;SDS011;32503;47.748;8.960;2022-08-02T13:58:23;4.43;;;2.50;;
3149;SDS011;32503;47.748;8.960;2022-08-02T14:00:52;2.77;;;2.67;;
3149;SDS011;32503;47.748;8.960;2022-08-02T14:03:19;2.50;;;2.40;;
3149;SDS011;32503;47.748;8.960;2022-08-02T14:05:46;2.27;;;2.17;;
3149;SDS011;32503;47.748;8.960;2022-08-02T14:08:14;2.73;;;2.63;;
3149;SDS011;32503;47.748;8.960;2022-08-02T14:10:42;2.53;;;2.43;;
3149;SDS011;32503;47.748;8.960;2022-08-02T14:13:10;3.23;;;3.03;;
3149;SDS011;32503;47.748;8.960;2022-08-02T14:15:37;2.50;;;2.40;;
3149;SDS011;32503;47.748;8.960;2022-08-02T14:18:06;2.23;;;2.13;;
3149;SDS011;32503;47.748;8.960;2022-08-02T14:20:33;2.67;;;2.57;;
3149;SDS011;32503;47.748;8.960;2022-08-02T14:23:00;2.53;;;2.43;;
3149;SDS011;32503;47.748;8.960;2022-08-02T14:25:27;2.30;;;2.20;;
3149;SDS011;32503;47.748;8.960;2022-08-02T14:27:54;2.40;;;2.30;;
3149;SDS011;32503;47.748;8.960;2022-08-02T14:30:21;2.47;;;2.37;;
3149;SDS011;32503;47.748;8.960;2022-08-02T14:32:48;2.60;;;2.50;;
3149;SDS011;32503;47.748;8.960;2022-08-02T14:35:18;2.30;;;2.20;;
3149;SDS011;32503;47.748;8.960;2022-08-02T14:37:48;2.60;;;2.50;;
3149;SDS011;32503;47.748;8.960;2022-08-02T14:40:16;2.40;;;2.20;;
3149;SDS011;32503;47.748;8.960;2022-08-02T14:42:43;2.23;;;2.13;;
3149;SDS011;32503;47.748;8.960;2022-08-02T14:45:11;2.33;;;2.23;;
3149;SDS011;32503;47.748;8.960;2022-08-02T14:47:42;2.60;;;2.50;;
3149;SDS011;32503;47.748;8.960;2022-08-02T14:50:10;2.13;;;2.03;;
3149;SDS011;32503;47.748;8.960;2022-08-02T14:52:40;1.87;;;1.77;;
3149;SDS011;32503;47.748;8.960;2022-08-02T14:55:07;2.57;;;2.47;;
3149;SDS011;32503;47.748;8.960;2022-08-02T14:57:34;2.53;;;2.43;;
3149;SDS011;32503;47.748;8.960;2022-08-02T15:00:02;2.33;;;1.90;;
3149;SDS011;32503;47.748;8.960;2022-08-02T15:02:31;2.30;;;2.20;;
3149;SDS011;32503;47.748;8.960;2022-08-02T15:04:58;1.90;;;1.80;;
3149;SDS011;32503;47.748;8.960;2022-08-02T15:07:25;2.10;;;2.00;;
3149;SDS011;32503;47.748;8.960;2022-08-02T15:09:53;2.17;;;2.07;;
3149;SDS011;32503;47.748;8.960;2022-08-02T15:12:20;6.80;;;2.10;;
3149;SDS011;32503;47.748;8.960;2022-08-02T15:14:48;1.90;;;1.80;;
3149;SDS011;32503;47.748;8.960;2022-08-02T15:17:15;1.90;;;1.80;;
3149;SDS011;32503;47.748;8.960;2022-08-02T15:19:42;2.23;;;1.90;;
3149;SDS011;32503;47.748;8.960;2022-08-02T15:22:09;2.27;;;2.17;;
3149;SDS011;32503;47.748;8.960;2022-08-02T15:24:36;2.10;;;2.00;;
3149;SDS011;32503;47.748;8.960;2022-08-02T15:27:04;2.60;;;2.40;;
3149;SDS011;32503;47.748;8.960;2022-08-02T15:29:37;1.97;;;1.87;;
3149;SDS011;32503;47.748;8.960;2022-08-02T15:32:04;2.00;;;1.90;;